sensor_id;sensor_type;location;lat;lon;timestamp;temperature;humidity
21801;DHT22;11062;51.164;16.924;2023-03-03T00:01:21;23.40;35.80
21801;DHT22;11062;51.164;16.924;2023-03-03T00:04:12;23.30;36.00
21801;DHT22;11062;51.164;16.924;2023-03-03T00:06:56;23.10;36.30
21801;DHT22;11062;51.164;16.924;2023-03-03T00:09:36;22.90;36.40
21801;DHT22;11062;51.164;16.924;2023-03-03T00:12:26;22.70;36.70
21801;DHT22;11062;51.164;16.924;2023-03-03T00:14:59;22.70;36.70
21801;DHT22;11062;51.164;16.924;2023-03-03T00:17:33;23.00;36.60
21801;DHT22;11062;51.164;16.924;2023-03-03T00:20:02;23.00;36.50
21801;DHT22;11062;51.164;16.924;2023-03-03T00:23:41;22.90;36.40
21801;DHT22;11062;51.164;16.924;2023-03-03T00:25:45;23.20;36.50
21801;DHT22;11062;51.164;16.924;2023-03-03T00:28:29;23.30;36.30
21801;DHT22;11062;51.164;16.924;2023-03-03T00:30:58;23.60;36.20
21801;DHT22;11062;51.164;16.924;2023-03-03T00:33:32;23.40;36.00
21801;DHT22;11062;51.164;16.924;2023-03-03T00:36:20;23.80;35.90
21801;DHT22;11062;51.164;16.924;2023-03-03T00:38:47;23.70;35.90
21801;DHT22;11062;51.164;16.924;2023-03-03T00:41:23;23.60;35.70
21801;DHT22;11062;51.164;16.924;2023-03-03T00:43:50;24.10;35.70
21801;DHT22;11062;51.164;16.924;2023-03-03T00:46:21;23.80;35.30
21801;DHT22;11062;51.164;16.924;2023-03-03T00:48:49;24.30;35.40
21801;DHT22;11062;51.164;16.924;2023-03-03T00:53:44;24.30;35.30
21801;DHT22;11062;51.164;16.924;2023-03-03T00:56:10;24.40;35.20
21801;DHT22;11062;51.164;16.924;2023-03-03T00:58:36;24.40;35.20
21801;DHT22;11062;51.164;16.924;2023-03-03T01:01:02;24.10;34.80
21801;DHT22;11062;51.164;16.924;2023-03-03T01:03:28;24.30;35.00
21801;DHT22;11062;51.164;16.924;2023-03-03T01:05:54;24.40;34.90
21801;DHT22;11062;51.164;16.924;2023-03-03T01:08:21;24.30;35.00
21801;DHT22;11062;51.164;16.924;2023-03-03T01:11:17;24.30;35.10
21801;DHT22;11062;51.164;16.924;2023-03-03T01:13:45;24.30;34.90
21801;DHT22;11062;51.164;16.924;2023-03-03T01:16:12;24.30;34.90
21801;DHT22;11062;51.164;16.924;2023-03-03T01:18:38;24.60;34.80
21801;DHT22;11062;51.164;16.924;2023-03-03T01:21:07;24.10;34.80
21801;DHT22;11062;51.164;16.924;2023-03-03T01:23:33;24.10;35.00
21801;DHT22;11062;51.164;16.924;2023-03-03T01:25:59;24.10;35.00
21801;DHT22;11062;51.164;16.924;2023-03-03T01:28:25;24.10;35.10
21801;DHT22;11062;51.164;16.924;2023-03-03T01:30:54;24.20;35.10
21801;DHT22;11062;51.164;16.924;2023-03-03T01:33:24;24.30;35.00
21801;DHT22;11062;51.164;16.924;2023-03-03T01:35:50;24.20;34.70
21801;DHT22;11062;51.164;16.924;2023-03-03T01:38:16;24.40;34.80
21801;DHT22;11062;51.164;16.924;2023-03-03T01:40:41;24.40;34.80
21801;DHT22;11062;51.164;16.924;2023-03-03T01:43:14;24.40;35.30
21801;DHT22;11062;51.164;16.924;2023-03-03T01:48:17;24.40;34.90
21801;DHT22;11062;51.164;16.924;2023-03-03T01:50:55;24.40;34.70
21801;DHT22;11062;51.164;16.924;2023-03-03T01:53:28;24.50;34.90
21801;DHT22;11062;51.164;16.924;2023-03-03T01:55:58;24.40;34.70
21801;DHT22;11062;51.164;16.924;2023-03-03T01:58:31;24.40;34.70
21801;DHT22;11062;51.164;16.924;2023-03-03T02:01:04;24.20;34.50
21801;DHT22;11062;51.164;16.924;2023-03-03T02:03:33;24.50;34.70
21801;DHT22;11062;51.164;16.924;2023-03-03T02:06:04;24.40;34.60
21801;DHT22;11062;51.164;16.924;2023-03-03T02:08:39;24.60;34.50
21801;DHT22;11062;51.164;16.924;2023-03-03T02:11:08;24.60;34.70
21801;DHT22;11062;51.164;16.924;2023-03-03T02:18:08;24.50;34.50
21801;DHT22;11062;51.164;16.924;2023-03-03T02:21:19;24.40;34.40
21801;DHT22;11062;51.164;16.924;2023-03-03T02:25:00;24.40;34.60
21801;DHT22;11062;51.164;16.924;2023-03-03T02:28:39;24.30;34.60
21801;DHT22;11062;51.164;16.924;2023-03-03T02:35:35;23.90;34.80
21801;DHT22;11062;51.164;16.924;2023-03-03T02:44:44;23.50;35.90
21801;DHT22;11062;51.164;16.924;2023-03-03T02:47:10;23.40;35.90
21801;DHT22;11062;51.164;16.924;2023-03-03T02:49:39;22.90;35.90
21801;DHT22;11062;51.164;16.924;2023-03-03T02:52:10;22.80;36.20
21801;DHT22;11062;51.164;16.924;2023-03-03T02:54:39;22.60;36.40
21801;DHT22;11062;51.164;16.924;2023-03-03T02:57:08;22.10;36.90
21801;DHT22;11062;51.164;16.924;2023-03-03T02:59:35;22.20;37.30
21801;DHT22;11062;51.164;16.924;2023-03-03T03:02:02;22.00;37.50
21801;DHT22;11062;51.164;16.924;2023-03-03T03:05:16;22.10;37.60
21801;DHT22;11062;51.164;16.924;2023-03-03T03:08:33;22.00;37.40
21801;DHT22;11062;51.164;16.924;2023-03-03T03:11:45;22.20;37.60
21801;DHT22;11062;51.164;16.924;2023-03-03T03:14:33;21.60;37.20
21801;DHT22;11062;51.164;16.924;2023-03-03T03:16:59;22.20;37.60
21801;DHT22;11062;51.164;16.924;2023-03-03T03:19:26;21.80;37.40
21801;DHT22;11062;51.164;16.924;2023-03-03T03:21:52;21.90;37.80
21801;DHT22;11062;51.164;16.924;2023-03-03T03:24:18;22.20;37.60
21801;DHT22;11062;51.164;16.924;2023-03-03T03:26:44;22.20;37.50
21801;DHT22;11062;51.164;16.924;2023-03-03T03:29:10;22.40;37.50
21801;DHT22;11062;51.164;16.924;2023-03-03T03:31:36;22.60;37.30
21801;DHT22;11062;51.164;16.924;2023-03-03T03:34:02;22.80;37.10
21801;DHT22;11062;51.164;16.924;2023-03-03T03:36:28;22.60;36.50
21801;DHT22;11062;51.164;16.924;2023-03-03T03:38:54;23.20;36.30
21801;DHT22;11062;51.164;16.924;2023-03-03T03:41:20;23.20;36.10
21801;DHT22;11062;51.164;16.924;2023-03-03T03:43:46;23.30;36.00
21801;DHT22;11062;51.164;16.924;2023-03-03T03:46:12;23.20;35.80
21801;DHT22;11062;51.164;16.924;2023-03-03T03:48:38;23.00;35.60
21801;DHT22;11062;51.164;16.924;2023-03-03T03:51:04;22.80;35.70
21801;DHT22;11062;51.164;16.924;2023-03-03T03:53:30;22.70;36.10
21801;DHT22;11062;51.164;16.924;2023-03-03T03:55:56;22.40;36.20
21801;DHT22;11062;51.164;16.924;2023-03-03T03:58:22;22.20;36.20
21801;DHT22;11062;51.164;16.924;2023-03-03T04:00:48;22.50;36.30
21801;DHT22;11062;51.164;16.924;2023-03-03T04:03:14;20.90;35.60
21801;DHT22;11062;51.164;16.924;2023-03-03T04:05:40;22.80;36.50
21801;DHT22;11062;51.164;16.924;2023-03-03T04:08:06;23.00;36.30
21801;DHT22;11062;51.164;16.924;2023-03-03T04:10:32;22.80;36.10
21801;DHT22;11062;51.164;16.924;2023-03-03T04:12:58;22.80;36.40
21801;DHT22;11062;51.164;16.924;2023-03-03T04:15:24;22.80;36.50
21801;DHT22;11062;51.164;16.924;2023-03-03T04:17:50;22.80;36.50
21801;DHT22;11062;51.164;16.924;2023-03-03T04:20:16;22.70;36.40
21801;DHT22;11062;51.164;16.924;2023-03-03T04:22:43;22.10;36.10
21801;DHT22;11062;51.164;16.924;2023-03-03T04:25:13;22.30;36.50
21801;DHT22;11062;51.164;16.924;2023-03-03T04:27:39;21.70;36.80
21801;DHT22;11062;51.164;16.924;2023-03-03T04:30:06;21.80;37.20
21801;DHT22;11062;51.164;16.924;2023-03-03T04:32:32;22.00;37.20
21801;DHT22;11062;51.164;16.924;2023-03-03T04:34:58;22.20;37.00
21801;DHT22;11062;51.164;16.924;2023-03-03T04:37:25;22.10;37.10
21801;DHT22;11062;51.164;16.924;2023-03-03T04:40:12;21.90;37.10
21801;DHT22;11062;51.164;16.924;2023-03-03T04:43:02;21.50;37.40
21801;DHT22;11062;51.164;16.924;2023-03-03T04:45:53;21.30;38.00
21801;DHT22;11062;51.164;16.924;2023-03-03T04:48:52;20.90;38.50
21801;DHT22;11062;51.164;16.924;2023-03-03T04:51:49;20.80;38.60
21801;DHT22;11062;51.164;16.924;2023-03-03T04:54:46;20.10;39.10
21801;DHT22;11062;51.164;16.924;2023-03-03T04:57:52;20.20;39.40
21801;DHT22;11062;51.164;16.924;2023-03-03T05:00:18;20.10;39.20
21801;DHT22;11062;51.164;16.924;2023-03-03T05:02:46;20.00;39.30
21801;DHT22;11062;51.164;16.924;2023-03-03T05:05:12;20.30;39.50
21801;DHT22;11062;51.164;16.924;2023-03-03T05:07:39;20.10;39.10
21801;DHT22;11062;51.164;16.924;2023-03-03T05:10:06;20.80;39.00
21801;DHT22;11062;51.164;16.924;2023-03-03T05:12:32;21.10;38.60
21801;DHT22;11062;51.164;16.924;2023-03-03T05:14:58;21.90;38.60
21801;DHT22;11062;51.164;16.924;2023-03-03T05:17:24;21.40;37.90
21801;DHT22;11062;51.164;16.924;2023-03-03T05:19:50;21.60;37.70
21801;DHT22;11062;51.164;16.924;2023-03-03T05:22:16;21.60;37.60
21801;DHT22;11062;51.164;16.924;2023-03-03T05:24:42;21.60;37.60
21801;DHT22;11062;51.164;16.924;2023-03-03T05:27:08;21.50;37.30
21801;DHT22;11062;51.164;16.924;2023-03-03T05:29:36;21.60;37.10
21801;DHT22;11062;51.164;16.924;2023-03-03T05:32:02;21.70;37.20
21801;DHT22;11062;51.164;16.924;2023-03-03T05:34:28;21.70;37.10
21801;DHT22;11062;51.164;16.924;2023-03-03T05:36:53;21.80;37.00
21801;DHT22;11062;51.164;16.924;2023-03-03T05:39:22;22.00;37.00
21801;DHT22;11062;51.164;16.924;2023-03-03T05:41:49;21.70;36.80
21801;DHT22;11062;51.164;16.924;2023-03-03T05:44:15;21.80;36.80
21801;DHT22;11062;51.164;16.924;2023-03-03T05:46:41;21.60;37.30
21801;DHT22;11062;51.164;16.924;2023-03-03T05:49:07;21.70;37.50
21801;DHT22;11062;51.164;16.924;2023-03-03T05:51:36;22.10;37.40
21801;DHT22;11062;51.164;16.924;2023-03-03T05:54:02;21.70;37.10
21801;DHT22;11062;51.164;16.924;2023-03-03T05:56:28;22.00;36.80
21801;DHT22;11062;51.164;16.924;2023-03-03T05:58:54;21.70;36.50
21801;DHT22;11062;51.164;16.924;2023-03-03T06:01:20;21.50;36.90
21801;DHT22;11062;51.164;16.924;2023-03-03T06:03:51;21.40;37.00
21801;DHT22;11062;51.164;16.924;2023-03-03T06:06:17;21.30;37.10
21801;DHT22;11062;51.164;16.924;2023-03-03T06:08:44;21.20;37.20
21801;DHT22;11062;51.164;16.924;2023-03-03T06:11:13;21.00;37.80
21801;DHT22;11062;51.164;16.924;2023-03-03T06:13:41;20.90;38.00
21801;DHT22;11062;51.164;16.924;2023-03-03T06:16:07;20.70;37.70
21801;DHT22;11062;51.164;16.924;2023-03-03T06:18:33;21.20;37.80
21801;DHT22;11062;51.164;16.924;2023-03-03T06:20:59;21.20;37.70
21801;DHT22;11062;51.164;16.924;2023-03-03T06:23:25;21.10;37.50
21801;DHT22;11062;51.164;16.924;2023-03-03T06:25:51;20.90;37.60
21801;DHT22;11062;51.164;16.924;2023-03-03T06:28:18;21.20;37.40
21801;DHT22;11062;51.164;16.924;2023-03-03T06:30:44;21.20;37.40
21801;DHT22;11062;51.164;16.924;2023-03-03T06:33:10;20.20;37.20
21801;DHT22;11062;51.164;16.924;2023-03-03T06:35:49;20.40;38.20
21801;DHT22;11062;51.164;16.924;2023-03-03T06:38:16;20.50;38.00
21801;DHT22;11062;51.164;16.924;2023-03-03T06:40:46;20.80;37.70
21801;DHT22;11062;51.164;16.924;2023-03-03T06:43:13;21.10;37.60
21801;DHT22;11062;51.164;16.924;2023-03-03T06:45:44;20.70;37.50
21801;DHT22;11062;51.164;16.924;2023-03-03T06:48:11;20.80;37.70
21801;DHT22;11062;51.164;16.924;2023-03-03T06:50:37;20.90;37.60
21801;DHT22;11062;51.164;16.924;2023-03-03T06:53:12;20.60;37.70
21801;DHT22;11062;51.164;16.924;2023-03-03T06:55:39;20.40;37.80
21801;DHT22;11062;51.164;16.924;2023-03-03T06:58:26;20.10;38.20
21801;DHT22;11062;51.164;16.924;2023-03-03T07:00:59;20.00;38.20
21801;DHT22;11062;51.164;16.924;2023-03-03T07:03:35;22.20;39.00
21801;DHT22;11062;51.164;16.924;2023-03-03T07:08:47;20.00;39.20
21801;DHT22;11062;51.164;16.924;2023-03-03T07:11:17;19.80;39.00
21801;DHT22;11062;51.164;16.924;2023-03-03T07:13:49;19.30;38.80
21801;DHT22;11062;51.164;16.924;2023-03-03T07:16:19;19.90;39.60
21801;DHT22;11062;51.164;16.924;2023-03-03T07:18:59;19.30;39.70
21801;DHT22;11062;51.164;16.924;2023-03-03T07:21:35;19.50;39.70
21801;DHT22;11062;51.164;16.924;2023-03-03T07:24:21;19.20;39.80
21801;DHT22;11062;51.164;16.924;2023-03-03T07:26:50;18.70;40.10
21801;DHT22;11062;51.164;16.924;2023-03-03T07:29:24;18.70;40.80
21801;DHT22;11062;51.164;16.924;2023-03-03T07:31:52;19.10;40.40
21801;DHT22;11062;51.164;16.924;2023-03-03T07:34:37;19.50;39.70
21801;DHT22;11062;51.164;16.924;2023-03-03T07:37:16;19.30;39.00
21801;DHT22;11062;51.164;16.924;2023-03-03T07:39:46;18.80;39.00
21801;DHT22;11062;51.164;16.924;2023-03-03T07:42:39;18.90;39.10
21801;DHT22;11062;51.164;16.924;2023-03-03T07:45:29;19.20;39.10
21801;DHT22;11062;51.164;16.924;2023-03-03T07:50:42;19.90;38.50
21801;DHT22;11062;51.164;16.924;2023-03-03T07:53:13;19.60;38.10
21801;DHT22;11062;51.164;16.924;2023-03-03T07:55:42;18.90;38.40
21801;DHT22;11062;51.164;16.924;2023-03-03T08:03:45;20.20;38.50
21801;DHT22;11062;51.164;16.924;2023-03-03T08:07:48;20.50;37.70
21801;DHT22;11062;51.164;16.924;2023-03-03T08:10:56;20.70;36.80
21801;DHT22;11062;51.164;16.924;2023-03-03T08:14:26;20.60;36.80
21801;DHT22;11062;51.164;16.924;2023-03-03T08:17:30;21.60;36.80
21801;DHT22;11062;51.164;16.924;2023-03-03T08:21:15;21.70;36.50
21801;DHT22;11062;51.164;16.924;2023-03-03T08:23:46;21.30;36.60
21801;DHT22;11062;51.164;16.924;2023-03-03T08:26:19;21.30;36.30
21801;DHT22;11062;51.164;16.924;2023-03-03T08:28:46;21.40;36.30
21801;DHT22;11062;51.164;16.924;2023-03-03T08:31:13;20.90;36.30
21801;DHT22;11062;51.164;16.924;2023-03-03T08:33:39;21.30;36.30
21801;DHT22;11062;51.164;16.924;2023-03-03T08:36:08;21.80;37.20
21801;DHT22;11062;51.164;16.924;2023-03-03T08:38:37;21.30;36.10
21801;DHT22;11062;51.164;16.924;2023-03-03T08:41:05;21.50;36.30
21801;DHT22;11062;51.164;16.924;2023-03-03T08:43:31;21.60;36.70
21801;DHT22;11062;51.164;16.924;2023-03-03T08:46:04;21.40;36.20
21801;DHT22;11062;51.164;16.924;2023-03-03T08:48:32;21.60;36.60
21801;DHT22;11062;51.164;16.924;2023-03-03T08:51:00;21.70;36.70
21801;DHT22;11062;51.164;16.924;2023-03-03T08:53:29;20.20;36.00
21801;DHT22;11062;51.164;16.924;2023-03-03T08:55:58;21.30;36.30
21801;DHT22;11062;51.164;16.924;2023-03-03T08:58:27;21.90;36.30
21801;DHT22;11062;51.164;16.924;2023-03-03T09:00:53;21.90;36.10
21801;DHT22;11062;51.164;16.924;2023-03-03T09:03:22;21.70;36.00
21801;DHT22;11062;51.164;16.924;2023-03-03T09:05:48;21.20;36.30
21801;DHT22;11062;51.164;16.924;2023-03-03T09:08:17;21.60;36.40
21801;DHT22;11062;51.164;16.924;2023-03-03T09:10:45;21.20;36.10
21801;DHT22;11062;51.164;16.924;2023-03-03T09:13:14;21.10;35.80
21801;DHT22;11062;51.164;16.924;2023-03-03T09:15:41;21.40;35.90
21801;DHT22;11062;51.164;16.924;2023-03-03T09:18:31;21.80;36.20
21801;DHT22;11062;51.164;16.924;2023-03-03T09:21:00;21.70;36.40
21801;DHT22;11062;51.164;16.924;2023-03-03T09:23:36;22.00;36.00
21801;DHT22;11062;51.164;16.924;2023-03-03T09:28:57;21.30;36.20
21801;DHT22;11062;51.164;16.924;2023-03-03T09:31:27;21.30;36.60
21801;DHT22;11062;51.164;16.924;2023-03-03T09:33:56;21.30;36.60
21801;DHT22;11062;51.164;16.924;2023-03-03T09:36:28;21.00;36.60
21801;DHT22;11062;51.164;16.924;2023-03-03T09:38:55;21.00;36.60
21801;DHT22;11062;51.164;16.924;2023-03-03T09:52:43;22.00;36.20
21801;DHT22;11062;51.164;16.924;2023-03-03T10:12:43;21.00;37.40
21801;DHT22;11062;51.164;16.924;2023-03-03T10:18:27;21.10;36.70
21801;DHT22;11062;51.164;16.924;2023-03-03T10:21:34;21.30;36.20
21801;DHT22;11062;51.164;16.924;2023-03-03T10:24:29;21.10;36.70
21801;DHT22;11062;51.164;16.924;2023-03-03T10:27:23;21.90;36.50
21801;DHT22;11062;51.164;16.924;2023-03-03T10:30:19;21.80;35.90
21801;DHT22;11062;51.164;16.924;2023-03-03T10:42:09;21.50;36.50
21801;DHT22;11062;51.164;16.924;2023-03-03T10:47:32;21.70;36.10
21801;DHT22;11062;51.164;16.924;2023-03-03T10:56:14;22.60;36.30
21801;DHT22;11062;51.164;16.924;2023-03-03T11:01:55;22.00;34.80
21801;DHT22;11062;51.164;16.924;2023-03-03T11:04:41;22.50;35.20
21801;DHT22;11062;51.164;16.924;2023-03-03T11:07:39;22.20;35.30
21801;DHT22;11062;51.164;16.924;2023-03-03T11:13:44;22.00;35.50
21801;DHT22;11062;51.164;16.924;2023-03-03T11:16:40;22.00;35.60
21801;DHT22;11062;51.164;16.924;2023-03-03T11:19:20;22.30;35.70
21801;DHT22;11062;51.164;16.924;2023-03-03T11:32:55;22.60;35.50
21801;DHT22;11062;51.164;16.924;2023-03-03T11:35:28;22.70;35.30
21801;DHT22;11062;51.164;16.924;2023-03-03T11:44:05;22.30;34.90
21801;DHT22;11062;51.164;16.924;2023-03-03T11:46:42;22.50;35.00
21801;DHT22;11062;51.164;16.924;2023-03-03T11:49:20;22.60;34.90
21801;DHT22;11062;51.164;16.924;2023-03-03T11:55:03;22.70;34.40
21801;DHT22;11062;51.164;16.924;2023-03-03T11:57:43;22.50;34.60
21801;DHT22;11062;51.164;16.924;2023-03-03T12:08:28;22.50;35.30
21801;DHT22;11062;51.164;16.924;2023-03-03T12:11:05;22.90;35.50
21801;DHT22;11062;51.164;16.924;2023-03-03T12:28:18;22.80;34.80
21801;DHT22;11062;51.164;16.924;2023-03-03T12:33:57;22.70;34.80
21801;DHT22;11062;51.164;16.924;2023-03-03T12:42:14;22.20;35.20
21801;DHT22;11062;51.164;16.924;2023-03-03T12:47:50;21.90;35.40
21801;DHT22;11062;51.164;16.924;2023-03-03T12:56:39;22.00;36.00
21801;DHT22;11062;51.164;16.924;2023-03-03T13:05:19;21.20;36.00
21801;DHT22;11062;51.164;16.924;2023-03-03T13:10:54;21.80;35.20
21801;DHT22;11062;51.164;16.924;2023-03-03T13:13:31;22.00;35.30
21801;DHT22;11062;51.164;16.924;2023-03-03T13:16:13;22.50;35.60
21801;DHT22;11062;51.164;16.924;2023-03-03T13:26:43;23.00;34.70
21801;DHT22;11062;51.164;16.924;2023-03-03T13:29:27;22.50;34.20
21801;DHT22;11062;51.164;16.924;2023-03-03T13:31:58;23.00;34.30
21801;DHT22;11062;51.164;16.924;2023-03-03T13:40:02;23.20;34.40
21801;DHT22;11062;51.164;16.924;2023-03-03T13:45:34;22.70;34.30
21801;DHT22;11062;51.164;16.924;2023-03-03T13:48:27;22.80;34.20
21801;DHT22;11062;51.164;16.924;2023-03-03T13:51:33;23.10;34.30
21801;DHT22;11062;51.164;16.924;2023-03-03T13:54:13;22.70;34.40
21801;DHT22;11062;51.164;16.924;2023-03-03T14:04:58;22.80;34.60
21801;DHT22;11062;51.164;16.924;2023-03-03T14:08:07;23.30;34.50
21801;DHT22;11062;51.164;16.924;2023-03-03T14:10:56;23.30;34.30
21801;DHT22;11062;51.164;16.924;2023-03-03T14:13:55;23.70;35.00
21801;DHT22;11062;51.164;16.924;2023-03-03T14:19:02;22.30;34.60
21801;DHT22;11062;51.164;16.924;2023-03-03T14:21:37;23.00;34.80
21801;DHT22;11062;51.164;16.924;2023-03-03T14:24:20;22.90;34.70
21801;DHT22;11062;51.164;16.924;2023-03-03T14:26:55;22.80;34.50
21801;DHT22;11062;51.164;16.924;2023-03-03T14:31:56;22.20;36.10
21801;DHT22;11062;51.164;16.924;2023-03-03T14:36:50;21.80;36.10
21801;DHT22;11062;51.164;16.924;2023-03-03T14:39:33;22.00;35.80
21801;DHT22;11062;51.164;16.924;2023-03-03T14:42:01;21.90;35.70
21801;DHT22;11062;51.164;16.924;2023-03-03T14:44:49;21.90;36.20
21801;DHT22;11062;51.164;16.924;2023-03-03T14:47:26;21.80;35.60
21801;DHT22;11062;51.164;16.924;2023-03-03T14:49:54;22.30;35.50
21801;DHT22;11062;51.164;16.924;2023-03-03T14:52:32;22.40;35.50
21801;DHT22;11062;51.164;16.924;2023-03-03T14:55:01;22.40;35.30
21801;DHT22;11062;51.164;16.924;2023-03-03T14:57:47;22.50;35.20
21801;DHT22;11062;51.164;16.924;2023-03-03T15:10:42;22.40;35.90
21801;DHT22;11062;51.164;16.924;2023-03-03T15:16:44;22.30;35.70
21801;DHT22;11062;51.164;16.924;2023-03-03T15:19:49;22.50;35.30
21801;DHT22;11062;51.164;16.924;2023-03-03T15:22:40;22.90;35.30
21801;DHT22;11062;51.164;16.924;2023-03-03T15:36:03;24.00;33.50
21801;DHT22;11062;51.164;16.924;2023-03-03T15:55:57;21.10;35.90
21801;DHT22;11062;51.164;16.924;2023-03-03T16:02:07;21.80;36.40
21801;DHT22;11062;51.164;16.924;2023-03-03T16:05:43;21.60;36.50
21801;DHT22;11062;51.164;16.924;2023-03-03T16:26:49;22.10;35.60
21801;DHT22;11062;51.164;16.924;2023-03-03T16:38:40;21.40;36.80
21801;DHT22;11062;51.164;16.924;2023-03-03T16:41:20;21.30;37.00
21801;DHT22;11062;51.164;16.924;2023-03-03T16:56:04;19.90;38.20
21801;DHT22;11062;51.164;16.924;2023-03-03T16:59:11;20.70;38.10
21801;DHT22;11062;51.164;16.924;2023-03-03T17:01:56;20.30;37.80
21801;DHT22;11062;51.164;16.924;2023-03-03T17:04:42;21.00;37.60
21801;DHT22;11062;51.164;16.924;2023-03-03T17:21:37;22.50;35.70
21801;DHT22;11062;51.164;16.924;2023-03-03T17:30:22;22.50;35.10
21801;DHT22;11062;51.164;16.924;2023-03-03T17:35:56;22.20;35.70
21801;DHT22;11062;51.164;16.924;2023-03-03T17:44:32;22.40;35.20
21801;DHT22;11062;51.164;16.924;2023-03-03T17:47:06;22.80;35.30
21801;DHT22;11062;51.164;16.924;2023-03-03T17:52:51;23.00;35.00
21801;DHT22;11062;51.164;16.924;2023-03-03T18:03:46;22.60;35.30
21801;DHT22;11062;51.164;16.924;2023-03-03T18:26:00;22.70;35.30
21801;DHT22;11062;51.164;16.924;2023-03-03T18:28:44;22.90;35.20
21801;DHT22;11062;51.164;16.924;2023-03-03T18:31:25;23.10;35.10
21801;DHT22;11062;51.164;16.924;2023-03-03T18:36:38;23.40;34.70
21801;DHT22;11062;51.164;16.924;2023-03-03T18:39:40;23.40;34.40
21801;DHT22;11062;51.164;16.924;2023-03-03T18:44:34;22.60;35.30
21801;DHT22;11062;51.164;16.924;2023-03-03T18:47:00;22.80;35.30
21801;DHT22;11062;51.164;16.924;2023-03-03T18:49:54;22.70;35.30
21801;DHT22;11062;51.164;16.924;2023-03-03T18:52:24;23.00;35.10
21801;DHT22;11062;51.164;16.924;2023-03-03T18:57:36;23.20;34.80
21801;DHT22;11062;51.164;16.924;2023-03-03T19:00:26;23.00;34.90
21801;DHT22;11062;51.164;16.924;2023-03-03T19:02:55;22.80;34.90
21801;DHT22;11062;51.164;16.924;2023-03-03T19:05:23;22.20;35.00
21801;DHT22;11062;51.164;16.924;2023-03-03T19:10:48;22.30;35.70
21801;DHT22;11062;51.164;16.924;2023-03-03T19:16:36;21.70;36.60
21801;DHT22;11062;51.164;16.924;2023-03-03T19:18:59;21.70;36.70
21801;DHT22;11062;51.164;16.924;2023-03-03T19:21:34;21.90;36.70
21801;DHT22;11062;51.164;16.924;2023-03-03T19:24:01;22.30;36.50
21801;DHT22;11062;51.164;16.924;2023-03-03T19:32:26;20.60;35.30
21801;DHT22;11062;51.164;16.924;2023-03-03T19:40:45;20.90;37.40
21801;DHT22;11062;51.164;16.924;2023-03-03T19:46:57;18.90;37.30
21801;DHT22;11062;51.164;16.924;2023-03-03T19:49:49;19.50;38.50
21801;DHT22;11062;51.164;16.924;2023-03-03T19:52:32;22.50;40.30
21801;DHT22;11062;51.164;16.924;2023-03-03T19:58:22;18.00;39.20
21801;DHT22;11062;51.164;16.924;2023-03-03T20:04:31;17.60;39.90
21801;DHT22;11062;51.164;16.924;2023-03-03T20:11:28;19.10;42.10
21801;DHT22;11062;51.164;16.924;2023-03-03T20:14:41;18.30;41.70
21801;DHT22;11062;51.164;16.924;2023-03-03T20:18:52;17.90;42.00
21801;DHT22;11062;51.164;16.924;2023-03-03T20:28:02;21.10;39.30
21801;DHT22;11062;51.164;16.924;2023-03-03T20:31:47;21.30;38.90
21801;DHT22;11062;51.164;16.924;2023-03-03T20:35:05;20.30;37.60
21801;DHT22;11062;51.164;16.924;2023-03-03T20:38:05;21.70;38.50
21801;DHT22;11062;51.164;16.924;2023-03-03T20:54:18;21.30;38.90
21801;DHT22;11062;51.164;16.924;2023-03-03T20:56:59;20.40;40.20
21801;DHT22;11062;51.164;16.924;2023-03-03T21:00:00;20.90;40.90
21801;DHT22;11062;51.164;16.924;2023-03-03T21:05:18;19.00;38.50
21801;DHT22;11062;51.164;16.924;2023-03-03T21:07:55;20.50;40.70
21801;DHT22;11062;51.164;16.924;2023-03-03T21:10:24;19.80;39.70
21801;DHT22;11062;51.164;16.924;2023-03-03T21:12:57;20.20;39.40
21801;DHT22;11062;51.164;16.924;2023-03-03T21:15:31;20.80;38.70
21801;DHT22;11062;51.164;16.924;2023-03-03T21:18:19;21.70;37.80
21801;DHT22;11062;51.164;16.924;2023-03-03T21:20:48;22.40;37.10
21801;DHT22;11062;51.164;16.924;2023-03-03T21:23:14;23.00;36.10
21801;DHT22;11062;51.164;16.924;2023-03-03T21:25:53;23.50;35.40
21801;DHT22;11062;51.164;16.924;2023-03-03T21:28:28;24.00;34.60
21801;DHT22;11062;51.164;16.924;2023-03-03T21:33:44;24.00;33.90
21801;DHT22;11062;51.164;16.924;2023-03-03T21:36:12;24.40;33.90
21801;DHT22;11062;51.164;16.924;2023-03-03T21:38:38;23.70;33.80
21801;DHT22;11062;51.164;16.924;2023-03-03T21:41:06;23.90;34.20
21801;DHT22;11062;51.164;16.924;2023-03-03T21:43:43;23.80;34.10
21801;DHT22;11062;51.164;16.924;2023-03-03T21:46:16;23.70;34.20
21801;DHT22;11062;51.164;16.924;2023-03-03T21:48:42;23.70;34.30
21801;DHT22;11062;51.164;16.924;2023-03-03T21:51:10;23.60;34.10
21801;DHT22;11062;51.164;16.924;2023-03-03T21:53:42;23.70;34.50
21801;DHT22;11062;51.164;16.924;2023-03-03T21:56:10;21.30;34.00
21801;DHT22;11062;51.164;16.924;2023-03-03T21:58:36;22.10;36.10
21801;DHT22;11062;51.164;16.924;2023-03-03T22:01:04;22.20;36.00
21801;DHT22;11062;51.164;16.924;2023-03-03T22:03:30;22.70;38.10
21801;DHT22;11062;51.164;16.924;2023-03-03T22:10:02;20.90;37.40
21801;DHT22;11062;51.164;16.924;2023-03-03T22:23:47;19.60;40.50
21801;DHT22;11062;51.164;16.924;2023-03-03T22:26:44;19.70;40.50
21801;DHT22;11062;51.164;16.924;2023-03-03T22:29:27;19.10;42.30
21801;DHT22;11062;51.164;16.924;2023-03-03T22:32:05;19.50;41.40
21801;DHT22;11062;51.164;16.924;2023-03-03T22:34:40;18.70;41.30
21801;DHT22;11062;51.164;16.924;2023-03-03T22:37:13;19.20;42.50
21801;DHT22;11062;51.164;16.924;2023-03-03T22:40:02;18.90;42.70
21801;DHT22;11062;51.164;16.924;2023-03-03T22:42:31;19.00;42.80
21801;DHT22;11062;51.164;16.924;2023-03-03T22:45:02;19.20;42.10
21801;DHT22;11062;51.164;16.924;2023-03-03T22:47:42;18.70;43.30
21801;DHT22;11062;51.164;16.924;2023-03-03T22:50:14;18.40;42.00
21801;DHT22;11062;51.164;16.924;2023-03-03T22:52:46;18.30;41.60
21801;DHT22;11062;51.164;16.924;2023-03-03T22:55:32;18.20;41.50
21801;DHT22;11062;51.164;16.924;2023-03-03T22:58:08;17.80;42.60
21801;DHT22;11062;51.164;16.924;2023-03-03T23:01:31;18.40;41.50
21801;DHT22;11062;51.164;16.924;2023-03-03T23:03:58;18.80;41.50
21801;DHT22;11062;51.164;16.924;2023-03-03T23:06:31;17.50;41.40
21801;DHT22;11062;51.164;16.924;2023-03-03T23:09:22;17.90;42.80
21801;DHT22;11062;51.164;16.924;2023-03-03T23:12:34;17.80;41.70